Time,TemperatureF,DewpointF,PressureIn,WindDirection,WindDirectionDegrees,WindSpeedMPH,WindSpeedGustMPH,Humidity,HourlyPrecipIn,Conditions,Clouds,dailyrainin,SolarRadiationWatts/m^2,SoftwareType,DateUTC
2013-02-04 00:01:00,47.1,32.2,30.06,SW,232,0.0,1.0,56,0.00,,,0.00,0.0,meteohub,2013-02-04 05:01:00,
2013-02-04 00:02:00,47.1,32.2,30.06,SW,231,1.0,2.0,56,0.00,,,0.00,0.0,meteohub,2013-02-04 05:02:00,
2013-02-04 00:03:00,47.1,32.2,30.06,SW,231,0.0,2.0,56,0.00,,,0.00,0.0,meteohub,2013-02-04 05:03:00,
2013-02-04 00:08:00,46.9,32.0,30.06,SW,231,0.0,2.0,56,0.00,,,0.00,0.0,meteohub,2013-02-04 05:08:00,
2013-02-04 00:13:00,46.9,32.0,30.06,SW,231,0.0,2.0,56,0.00,,,0.00,0.0,meteohub,2013-02-04 05:13:00,
2013-02-04 00:18:00,46.9,32.5,30.06,SW,230,0.0,2.0,57,0.00,,,0.00,0.0,meteohub,2013-02-04 05:18:00,
2013-02-04 00:23:00,46.8,32.4,30.06,SW,230,0.0,1.0,57,0.00,,,0.00,0.0,meteohub,2013-02-04 05:23:00,
2013-02-04 00:28:00,46.8,32.4,30.06,SW,231,0.0,1.0,57,0.00,,,0.00,0.0,meteohub,2013-02-04 05:28:00,
2013-02-04 00:33:00,46.6,32.2,30.06,SW,231,0.0,1.0,57,0.00,,,0.00,0.0,meteohub,2013-02-04 05:33:00,
2013-02-04 00:38:00,46.2,32.2,30.06,WSW,252,0.0,1.0,58,0.00,,,0.00,0.0,meteohub,2013-02-04 05:38:00,
2013-02-04 00:43:00,46.2,32.2,30.06,WSW,253,0.0,2.0,58,0.00,,,0.00,0.0,meteohub,2013-02-04 05:43:00,
2013-02-04 00:48:00,46.0,32.0,30.06,WSW,253,0.0,2.0,58,0.00,,,0.00,0.0,meteohub,2013-02-04 05:48:00,
2013-02-04 00:53:00,46.0,32.0,30.06,WSW,253,0.0,2.0,58,0.00,,,0.00,0.0,meteohub,2013-02-04 05:53:00,
2013-02-04 00:58:00,45.9,32.0,30.06,WSW,253,0.0,1.0,58,0.00,,,0.00,0.0,meteohub,2013-02-04 05:58:00,
2013-02-04 01:03:00,45.7,32.2,30.06,WSW,253,0.0,1.0,59,0.00,,,0.00,0.0,meteohub,2013-02-04 06:03:00,
2013-02-04 01:08:00,45.3,31.8,30.06,WSW,253,0.0,1.0,59,0.00,,,0.00,0.0,meteohub,2013-02-04 06:08:00,
2013-02-04 01:13:00,45.0,31.5,30.06,WSW,253,0.0,1.0,59,0.00,,,0.00,0.0,meteohub,2013-02-04 06:13:00,
2013-02-04 01:18:00,44.8,31.3,30.06,WSW,253,0.0,0.0,59,0.00,,,0.00,0.0,meteohub,2013-02-04 06:18:00,
2013-02-04 01:23:00,44.4,31.5,30.06,WSW,253,0.0,0.0,60,0.00,,,0.00,0.0,meteohub,2013-02-04 06:23:00,
2013-02-04 01:28:00,44.1,31.1,30.07,WSW,253,0.0,0.0,60,0.00,,,0.00,0.0,meteohub,2013-02-04 06:28:00,
2013-02-04 01:33:00,43.5,30.6,30.07,WSW,253,0.0,0.0,60,0.00,,,0.00,0.0,meteohub,2013-02-04 06:33:00,
2013-02-04 01:38:00,43.2,30.2,30.06,WSW,253,0.0,0.0,60,0.00,,,0.00,0.0,meteohub,2013-02-04 06:38:00,
2013-02-04 01:43:00,43.0,30.4,30.06,WSW,253,0.0,0.0,61,0.00,,,0.00,0.0,meteohub,2013-02-04 06:43:00,
2013-02-04 01:48:00,42.6,30.2,30.07,WSW,253,0.0,0.0,61,0.00,,,0.00,0.0,meteohub,2013-02-04 06:48:00,
2013-02-04 01:53:00,42.3,29.8,30.07,WSW,253,0.0,0.0,61,0.00,,,0.00,0.0,meteohub,2013-02-04 06:53:00,
2013-02-04 01:58:00,41.9,29.8,30.07,WSW,253,0.0,0.0,62,0.00,,,0.00,0.0,meteohub,2013-02-04 06:58:00,
2013-02-04 02:03:00,41.5,29.5,30.07,WSW,253,0.0,0.0,62,0.00,,,0.00,0.0,meteohub,2013-02-04 07:03:00,
2013-02-04 02:08:00,41.4,29.7,30.07,WSW,253,0.0,0.0,63,0.00,,,0.00,0.0,meteohub,2013-02-04 07:08:00,
2013-02-04 02:13:00,41.2,29.5,30.07,WSW,253,0.0,0.0,63,0.00,,,0.00,0.0,meteohub,2013-02-04 07:13:00,
2013-02-04 02:18:00,40.8,29.1,30.07,WSW,253,0.0,0.0,63,0.00,,,0.00,0.0,meteohub,2013-02-04 07:18:00,
2013-02-04 02:23:00,40.6,29.5,30.07,WSW,253,0.0,0.0,64,0.00,,,0.00,0.0,meteohub,2013-02-04 07:23:00,
2013-02-04 02:28:00,40.3,29.1,30.07,WSW,253,0.0,0.0,64,0.00,,,0.00,0.0,meteohub,2013-02-04 07:28:00,
2013-02-04 02:33:00,39.9,28.8,30.07,WSW,253,0.0,1.0,64,0.00,,,0.00,0.0,meteohub,2013-02-04 07:33:00,
2013-02-04 02:38:00,39.7,28.9,30.07,WSW,253,0.0,1.0,65,0.00,,,0.00,0.0,meteohub,2013-02-04 07:38:00,
2013-02-04 02:43:00,39.6,28.8,30.06,WSW,253,0.0,0.0,65,0.00,,,0.00,0.0,meteohub,2013-02-04 07:43:00,
2013-02-04 02:48:00,39.4,28.6,30.06,WSW,253,0.0,0.0,65,0.00,,,0.00,0.0,meteohub,2013-02-04 07:48:00,
2013-02-04 02:53:00,39.0,28.6,30.06,WSW,253,0.0,0.0,66,0.00,,,0.00,0.0,meteohub,2013-02-04 07:53:00,
2013-02-04 02:58:00,38.8,28.4,30.06,WSW,253,0.0,0.0,66,0.00,,,0.00,0.0,meteohub,2013-02-04 07:58:00,
2013-02-04 03:03:00,38.7,28.2,30.06,WSW,253,0.0,0.0,66,0.00,,,0.00,0.0,meteohub,2013-02-04 08:03:00,
2013-02-04 03:08:00,38.5,28.0,30.06,WSW,253,0.0,0.0,66,0.00,,,0.00,0.0,meteohub,2013-02-04 08:08:00,
2013-02-04 03:13:00,38.3,28.2,30.06,WSW,253,0.0,0.0,67,0.00,,,0.00,0.0,meteohub,2013-02-04 08:13:00,
2013-02-04 03:18:00,38.1,28.2,30.06,WSW,253,0.0,0.0,67,0.00,,,0.00,0.0,meteohub,2013-02-04 08:18:00,
2013-02-04 03:23:00,38.1,28.2,30.06,WSW,253,0.0,0.0,67,0.00,,,0.00,0.0,meteohub,2013-02-04 08:23:00,
2013-02-04 03:28:00,37.9,28.4,30.06,WSW,253,0.0,0.0,68,0.00,,,0.00,0.0,meteohub,2013-02-04 08:28:00,
2013-02-04 03:33:00,37.8,28.2,30.06,WSW,253,0.0,0.0,68,0.00,,,0.00,0.0,meteohub,2013-02-04 08:33:00,
2013-02-04 03:38:00,37.6,28.0,30.06,WSW,253,0.0,0.0,68,0.00,,,0.00,0.0,meteohub,2013-02-04 08:38:00,
2013-02-04 03:43:00,37.4,28.2,30.06,WSW,253,0.0,0.0,69,0.00,,,0.00,0.0,meteohub,2013-02-04 08:43:00,
2013-02-04 03:48:00,37.2,28.0,30.05,WSW,253,0.0,0.0,69,0.00,,,0.00,0.0,meteohub,2013-02-04 08:48:00,
2013-02-04 03:53:00,37.2,28.0,30.05,WSW,253,0.0,0.0,69,0.00,,,0.00,0.0,meteohub,2013-02-04 08:53:00,
2013-02-04 03:58:00,37.2,28.0,30.05,WSW,253,0.0,0.0,69,0.00,,,0.00,0.0,meteohub,2013-02-04 08:58:00,
2013-02-04 04:03:00,37.0,27.9,30.05,WSW,253,0.0,0.0,69,0.00,,,0.00,0.0,meteohub,2013-02-04 09:03:00,
2013-02-04 04:08:00,36.9,28.0,30.05,WSW,253,0.0,0.0,70,0.00,,,0.00,0.0,meteohub,2013-02-04 09:08:00,
2013-02-04 04:13:00,36.7,27.9,30.05,WSW,253,0.0,0.0,70,0.00,,,0.00,0.0,meteohub,2013-02-04 09:13:00,
2013-02-04 04:18:00,36.3,27.5,30.06,WSW,253,0.0,0.0,70,0.00,,,0.00,0.0,meteohub,2013-02-04 09:18:00,
2013-02-04 04:23:00,36.3,27.5,30.06,WSW,253,0.0,0.0,70,0.00,,,0.00,0.0,meteohub,2013-02-04 09:23:00,
2013-02-04 04:28:00,36.1,27.7,30.06,WSW,253,0.0,0.0,71,0.00,,,0.00,0.0,meteohub,2013-02-04 09:28:00,
2013-02-04 04:33:00,36.0,27.5,30.06,WSW,253,0.0,0.0,71,0.00,,,0.00,0.0,meteohub,2013-02-04 09:33:00,
2013-02-04 04:38:00,35.8,27.3,30.07,WSW,253,0.0,0.0,71,0.00,,,0.00,0.0,meteohub,2013-02-04 09:38:00,
2013-02-04 04:43:00,35.6,27.5,30.07,WSW,253,0.0,0.0,72,0.00,,,0.00,0.0,meteohub,2013-02-04 09:43:00,
2013-02-04 04:48:00,35.4,27.3,30.07,WSW,253,0.0,0.0,72,0.00,,,0.00,0.0,meteohub,2013-02-04 09:48:00,
2013-02-04 04:53:00,35.2,27.1,30.07,WSW,253,0.0,0.0,72,0.00,,,0.00,0.0,meteohub,2013-02-04 09:53:00,
2013-02-04 04:58:00,35.1,27.0,30.07,WSW,253,0.0,0.0,72,0.00,,,0.00,0.0,meteohub,2013-02-04 09:58:00,
2013-02-04 05:03:00,34.9,26.8,30.07,WSW,253,0.0,0.0,72,0.00,,,0.00,0.0,meteohub,2013-02-04 10:03:00,
2013-02-04 05:08:00,35.1,27.0,30.07,WSW,253,0.0,0.0,72,0.00,,,0.00,0.0,meteohub,2013-02-04 10:08:00,
2013-02-04 05:13:00,34.9,27.1,30.08,WSW,253,0.0,0.0,73,0.00,,,0.00,0.0,meteohub,2013-02-04 10:13:00,
2013-02-04 05:18:00,34.5,26.8,30.08,WSW,253,0.0,0.0,73,0.00,,,0.00,0.0,meteohub,2013-02-04 10:18:00,
2013-02-04 05:23:00,34.3,26.6,30.08,WSW,253,0.0,0.0,73,0.00,,,0.00,0.0,meteohub,2013-02-04 10:23:00,
2013-02-04 05:28:00,34.3,27.0,30.09,WSW,253,0.0,0.0,74,0.00,,,0.00,0.0,meteohub,2013-02-04 10:28:00,
2013-02-04 05:33:00,34.3,27.0,30.09,WSW,253,0.0,0.0,74,0.00,,,0.00,0.0,meteohub,2013-02-04 10:33:00,
2013-02-04 05:38:00,34.3,27.0,30.09,WSW,253,0.0,0.0,74,0.00,,,0.00,0.0,meteohub,2013-02-04 10:38:00,
2013-02-04 05:43:00,34.3,27.0,30.09,WSW,253,0.0,0.0,74,0.00,,,0.00,0.0,meteohub,2013-02-04 10:43:00,
2013-02-04 05:48:00,34.3,27.0,30.09,WSW,253,0.0,0.0,74,0.00,,,0.00,0.0,meteohub,2013-02-04 10:48:00,
2013-02-04 05:53:00,34.3,27.0,30.09,WSW,253,0.0,0.0,74,0.00,,,0.00,0.0,meteohub,2013-02-04 10:53:00,
2013-02-04 05:58:00,34.3,27.3,30.09,WSW,253,0.0,0.0,75,0.00,,,0.00,0.0,meteohub,2013-02-04 10:58:00,
2013-02-04 06:03:00,34.3,27.3,30.10,WSW,253,0.0,0.0,75,0.00,,,0.00,0.0,meteohub,2013-02-04 11:03:00,
2013-02-04 06:08:00,34.3,27.3,30.10,WSW,253,0.0,0.0,75,0.00,,,0.00,0.0,meteohub,2013-02-04 11:08:00,
2013-02-04 06:13:00,34.3,27.3,30.10,WSW,253,0.0,0.0,75,0.00,,,0.00,0.0,meteohub,2013-02-04 11:13:00,
2013-02-04 06:18:00,34.2,27.1,30.10,WSW,253,0.0,0.0,75,0.00,,,0.00,0.0,meteohub,2013-02-04 11:18:00,
2013-02-04 06:23:00,34.0,27.1,30.10,WSW,253,0.0,0.0,76,0.00,,,0.00,0.0,meteohub,2013-02-04 11:23:00,
2013-02-04 06:29:00,34.0,27.1,30.10,WSW,253,0.0,0.0,76,0.00,,,0.00,0.0,meteohub,2013-02-04 11:29:00,
2013-02-04 06:34:00,34.0,27.1,30.10,WSW,253,0.0,0.0,76,0.00,,,0.00,0.0,meteohub,2013-02-04 11:34:00,
2013-02-04 06:39:00,34.0,27.1,30.10,WSW,253,0.0,0.0,76,0.00,,,0.00,0.0,meteohub,2013-02-04 11:39:00,
2013-02-04 06:44:00,34.0,27.1,30.10,WSW,253,0.0,0.0,76,0.00,,,0.00,0.0,meteohub,2013-02-04 11:44:00,
2013-02-04 06:49:00,34.0,27.1,30.10,WSW,253,0.0,0.0,76,0.00,,,0.00,0.0,meteohub,2013-02-04 11:49:00,
2013-02-04 06:54:00,34.2,27.7,30.10,WSW,253,0.0,0.0,77,0.00,,,0.00,0.0,meteohub,2013-02-04 11:54:00,
2013-02-04 06:59:00,34.2,27.7,30.10,WSW,253,0.0,0.0,77,0.00,,,0.00,0.0,meteohub,2013-02-04 11:59:00,
2013-02-04 07:04:00,34.0,27.5,30.10,WSW,253,0.0,0.0,77,0.00,,,0.00,0.0,meteohub,2013-02-04 12:04:00,
2013-02-04 07:09:00,33.6,27.1,30.11,WSW,253,0.0,0.0,77,0.00,,,0.00,0.0,meteohub,2013-02-04 12:09:00,
2013-02-04 07:14:00,33.4,27.0,30.11,WSW,253,0.0,0.0,77,0.00,,,0.00,0.0,meteohub,2013-02-04 12:14:00,
2013-02-04 07:19:00,33.4,27.0,30.11,WSW,253,0.0,0.0,77,0.00,,,0.00,5.0,meteohub,2013-02-04 12:19:00,
2013-02-04 07:24:00,33.4,27.0,30.12,WSW,253,0.0,0.0,77,0.00,,,0.00,9.0,meteohub,2013-02-04 12:24:00,
2013-02-04 07:29:00,33.4,27.0,30.11,WSW,253,0.0,0.0,77,0.00,,,0.00,16.0,meteohub,2013-02-04 12:29:00,
2013-02-04 07:34:00,33.4,27.3,30.11,WSW,253,0.0,0.0,78,0.00,,,0.00,25.0,meteohub,2013-02-04 12:34:00,
2013-02-04 07:39:00,33.4,27.3,30.12,WSW,253,0.0,0.0,78,0.00,,,0.00,28.0,meteohub,2013-02-04 12:39:00,
2013-02-04 07:44:00,33.4,27.3,30.12,WSW,253,0.0,0.0,78,0.00,,,0.00,35.0,meteohub,2013-02-04 12:44:00,
2013-02-04 07:49:00,33.4,27.3,30.12,WSW,253,0.0,0.0,78,0.00,,,0.00,46.0,meteohub,2013-02-04 12:49:00,
2013-02-04 07:54:00,33.6,27.9,30.12,WSW,253,0.0,0.0,79,0.00,,,0.00,104.0,meteohub,2013-02-04 12:54:00,
2013-02-04 07:59:00,34.2,28.0,30.12,WSW,253,0.0,0.0,78,0.00,,,0.00,134.0,meteohub,2013-02-04 12:59:00,
2013-02-04 08:04:00,34.3,28.6,30.13,WSW,253,0.0,0.0,79,0.00,,,0.00,135.0,meteohub,2013-02-04 13:04:00,
2013-02-04 08:09:00,35.2,29.3,30.13,WSW,253,0.0,1.0,79,0.00,,,0.00,137.0,meteohub,2013-02-04 13:09:00,
2013-02-04 08:14:00,36.0,30.0,30.13,WSW,253,0.0,1.0,79,0.00,,,0.00,153.0,meteohub,2013-02-04 13:14:00,
2013-02-04 08:19:00,36.7,30.7,30.13,North,0,0.0,0.0,79,0.00,,,0.00,155.0,meteohub,2013-02-04 13:19:00,
2013-02-04 08:24:00,37.2,31.3,30.13,North,5,0.0,0.0,79,0.00,,,0.00,176.0,meteohub,2013-02-04 13:24:00,
2013-02-04 08:29:00,37.9,32.4,30.13,North,5,0.0,0.0,80,0.00,,,0.00,183.0,meteohub,2013-02-04 13:29:00,
2013-02-04 08:34:00,38.5,32.9,30.13,North,0,0.0,1.0,80,0.00,,,0.00,146.0,meteohub,2013-02-04 13:34:00,
2013-02-04 08:39:00,39.2,33.6,30.13,North,5,0.0,1.0,80,0.00,,,0.00,160.0,meteohub,2013-02-04 13:39:00,
2013-02-04 08:44:00,39.7,33.8,30.13,North,5,0.0,1.0,79,0.00,,,0.00,181.0,meteohub,2013-02-04 13:44:00,
2013-02-04 08:49:00,40.5,34.7,30.13,North,5,0.0,1.0,80,0.00,,,0.00,221.0,meteohub,2013-02-04 13:49:00,
2013-02-04 08:54:00,41.2,35.2,30.14,North,5,1.0,1.0,79,0.00,,,0.00,192.0,meteohub,2013-02-04 13:54:00,
2013-02-04 08:59:00,41.5,35.6,30.14,NW,311,0.0,1.0,79,0.00,,,0.00,206.0,meteohub,2013-02-04 13:59:00,
2013-02-04 09:04:00,42.1,36.0,30.14,NW,312,1.0,3.0,79,0.00,,,0.00,243.0,meteohub,2013-02-04 14:04:00,
2013-02-04 09:09:00,42.4,36.3,30.14,NNW,338,0.0,3.0,79,0.00,,,0.00,225.0,meteohub,2013-02-04 14:09:00,
2013-02-04 09:14:00,43.2,36.7,30.13,WNW,299,0.0,2.0,78,0.00,,,0.00,197.0,meteohub,2013-02-04 14:14:00,
2013-02-04 09:19:00,43.5,37.0,30.13,WNW,299,0.0,2.0,78,0.00,,,0.00,269.0,meteohub,2013-02-04 14:19:00,
2013-02-04 09:24:00,44.1,37.6,30.13,WNW,299,0.0,2.0,78,0.00,,,0.00,281.0,meteohub,2013-02-04 14:24:00,
2013-02-04 09:29:00,44.4,37.6,30.13,WNW,295,0.0,2.0,77,0.00,,,0.00,264.0,meteohub,2013-02-04 14:29:00,
2013-02-04 09:34:00,45.0,38.1,30.13,WNW,292,2.0,3.0,77,0.00,,,0.00,265.0,meteohub,2013-02-04 14:34:00,
2013-02-04 09:39:00,45.5,38.3,30.13,WNW,292,0.0,3.0,76,0.00,,,0.00,308.0,meteohub,2013-02-04 14:39:00,
2013-02-04 09:44:00,46.0,38.8,30.12,WNW,291,0.0,3.0,76,0.00,,,0.00,352.0,meteohub,2013-02-04 14:44:00,
2013-02-04 09:49:00,46.8,39.6,30.13,WNW,292,0.0,3.0,76,0.00,,,0.00,380.0,meteohub,2013-02-04 14:49:00,
2013-02-04 09:54:00,47.5,39.9,30.12,WNW,292,0.0,2.0,75,0.00,,,0.00,441.0,meteohub,2013-02-04 14:54:00,
2013-02-04 09:59:00,48.0,40.1,30.12,WNW,292,0.0,3.0,74,0.00,,,0.00,378.0,meteohub,2013-02-04 14:59:00,
2013-02-04 10:04:00,48.7,40.8,30.12,WNW,292,0.0,3.0,74,0.00,,,0.00,468.0,meteohub,2013-02-04 15:04:00,
2013-02-04 10:09:00,49.1,40.8,30.12,WNW,292,1.0,3.0,73,0.00,,,0.00,478.0,meteohub,2013-02-04 15:09:00,
2013-02-04 10:14:00,49.5,40.8,30.12,WNW,291,1.0,3.0,72,0.00,,,0.00,366.0,meteohub,2013-02-04 15:14:00,
2013-02-04 10:19:00,50.0,41.0,30.12,NE,53,0.0,3.0,71,0.00,,,0.00,455.0,meteohub,2013-02-04 15:19:00,
2013-02-04 10:24:00,50.5,41.2,30.12,NNE,22,1.0,5.0,70,0.00,,,0.00,390.0,meteohub,2013-02-04 15:24:00,
2013-02-04 10:29:00,50.9,41.2,30.12,NE,40,0.0,5.0,69,0.00,,,0.00,413.0,meteohub,2013-02-04 15:29:00,
2013-02-04 10:34:00,51.3,41.0,30.12,ENE,69,0.0,5.0,68,0.00,,,0.00,503.0,meteohub,2013-02-04 15:34:00,
2013-02-04 10:39:00,51.4,40.8,30.12,NNE,28,1.0,4.0,67,0.00,,,0.00,457.0,meteohub,2013-02-04 15:39:00,
2013-02-04 10:44:00,51.8,41.2,30.11,NNE,29,0.0,4.0,67,0.00,,,0.00,517.0,meteohub,2013-02-04 15:44:00,
2013-02-04 10:49:00,52.2,41.2,30.12,ENE,75,0.0,4.0,66,0.00,,,0.00,540.0,meteohub,2013-02-04 15:49:00,
2013-02-04 10:54:00,52.7,41.7,30.12,North,0,0.0,4.0,66,0.00,,,0.00,473.0,meteohub,2013-02-04 15:54:00,
2013-02-04 10:59:00,53.1,41.5,30.12,NE,45,0.0,3.0,65,0.00,,,0.00,452.0,meteohub,2013-02-04 15:59:00,
2013-02-04 11:04:00,53.2,41.7,30.11,NE,46,1.0,5.0,65,0.00,,,0.00,420.0,meteohub,2013-02-04 16:04:00,
2013-02-04 11:09:00,53.8,41.9,30.12,NE,46,2.0,5.0,64,0.00,,,0.00,526.0,meteohub,2013-02-04 16:09:00,
2013-02-04 11:14:00,54.0,42.1,30.11,North,9,0.0,5.0,64,0.00,,,0.00,501.0,meteohub,2013-02-04 16:14:00,
2013-02-04 11:19:00,54.1,41.9,30.11,North,9,1.0,3.0,63,0.00,,,0.00,612.0,meteohub,2013-02-04 16:19:00,
2013-02-04 11:24:00,54.3,42.1,30.11,North,9,0.0,3.0,63,0.00,,,0.00,503.0,meteohub,2013-02-04 16:24:00,
2013-02-04 11:29:00,54.9,42.1,30.11,North,9,0.0,3.0,62,0.00,,,0.00,536.0,meteohub,2013-02-04 16:29:00,
2013-02-04 11:34:00,55.0,42.3,30.11,NW,306,0.0,2.0,62,0.00,,,0.00,462.0,meteohub,2013-02-04 16:34:00,
2013-02-04 11:39:00,55.2,42.1,30.11,North,10,2.0,3.0,61,0.00,,,0.00,464.0,meteohub,2013-02-04 16:39:00,
2013-02-04 11:44:00,55.0,41.9,30.11,NE,37,0.0,4.0,61,0.00,,,0.00,577.0,meteohub,2013-02-04 16:44:00,
2013-02-04 11:49:00,55.0,41.9,30.12,NE,37,0.0,4.0,61,0.00,,,0.00,680.0,meteohub,2013-02-04 16:49:00,
2013-02-04 11:54:00,55.8,42.4,30.11,ENE,68,1.0,4.0,61,0.00,,,0.00,587.0,meteohub,2013-02-04 16:54:00,
2013-02-04 11:59:00,56.1,41.9,30.10,East,88,1.0,4.0,59,0.00,,,0.00,469.0,meteohub,2013-02-04 16:59:00,
2013-02-04 12:04:00,56.1,41.9,30.11,East,82,2.0,6.0,59,0.00,,,0.00,798.0,meteohub,2013-02-04 17:04:00,
2013-02-04 12:09:00,56.7,42.4,30.10,East,82,0.0,7.0,59,0.00,,,0.00,759.0,meteohub,2013-02-04 17:09:00,
2013-02-04 12:14:00,57.4,42.8,30.10,South,173,2.0,7.0,58,0.00,,,0.00,494.0,meteohub,2013-02-04 17:14:00,
2013-02-04 12:19:00,57.6,43.0,30.09,ENE,60,0.0,7.0,58,0.00,,,0.00,497.0,meteohub,2013-02-04 17:19:00,
2013-02-04 12:24:00,57.6,42.4,30.09,SSE,160,2.0,3.0,57,0.00,,,0.00,555.0,meteohub,2013-02-04 17:24:00,
2013-02-04 12:29:00,57.7,42.1,30.09,East,99,0.0,3.0,56,0.00,,,0.00,777.0,meteohub,2013-02-04 17:29:00,
2013-02-04 12:34:00,58.1,43.0,30.09,East,100,1.0,3.0,57,0.00,,,0.00,900.0,meteohub,2013-02-04 17:34:00,
2013-02-04 12:39:00,58.6,43.0,30.09,SSE,157,2.0,3.0,56,0.00,,,0.00,666.0,meteohub,2013-02-04 17:39:00,
2013-02-04 12:44:00,58.6,42.4,30.09,SSE,163,2.0,5.0,55,0.00,,,0.00,508.0,meteohub,2013-02-04 17:44:00,
2013-02-04 12:49:00,58.3,42.3,30.08,NE,49,1.0,7.0,55,0.00,,,0.00,392.0,meteohub,2013-02-04 17:49:00,
2013-02-04 12:54:00,58.3,42.3,30.08,WNW,287,1.0,7.0,55,0.00,,,0.00,327.0,meteohub,2013-02-04 17:54:00,
2013-02-04 12:59:00,58.5,42.4,30.08,WNW,286,1.0,7.0,55,0.00,,,0.00,311.0,meteohub,2013-02-04 17:59:00,
2013-02-04 13:04:00,58.6,42.1,30.08,SSE,164,0.0,4.0,54,0.00,,,0.00,297.0,meteohub,2013-02-04 18:04:00,
2013-02-04 13:09:00,58.6,42.1,30.08,South,183,2.0,4.0,54,0.00,,,0.00,348.0,meteohub,2013-02-04 18:09:00,
2013-02-04 13:14:00,58.6,41.5,30.08,South,176,0.0,5.0,53,0.00,,,0.00,527.0,meteohub,2013-02-04 18:14:00,
2013-02-04 13:19:00,58.8,41.7,30.08,South,188,1.0,5.0,53,0.00,,,0.00,471.0,meteohub,2013-02-04 18:19:00,
2013-02-04 13:24:00,58.8,41.2,30.08,WSW,246,3.0,5.0,52,0.00,,,0.00,432.0,meteohub,2013-02-04 18:24:00,
2013-02-04 13:29:00,59.0,41.9,30.07,South,186,1.0,7.0,53,0.00,,,0.00,443.0,meteohub,2013-02-04 18:29:00,
2013-02-04 13:34:00,59.0,41.4,30.07,WNW,289,2.0,7.0,52,0.00,,,0.00,436.0,meteohub,2013-02-04 18:34:00,
2013-02-04 13:39:00,59.2,41.5,30.07,WSW,254,1.0,7.0,52,0.00,,,0.00,396.0,meteohub,2013-02-04 18:39:00,
2013-02-04 13:44:00,59.4,41.7,30.07,South,188,2.0,5.0,52,0.00,,,0.00,339.0,meteohub,2013-02-04 18:44:00,
2013-02-04 13:49:00,59.2,41.5,30.07,SSW,204,1.0,5.0,52,0.00,,,0.00,330.0,meteohub,2013-02-04 18:49:00,
2013-02-04 13:54:00,59.2,41.5,30.07,SSW,205,1.0,4.0,52,0.00,,,0.00,320.0,meteohub,2013-02-04 18:54:00,
2013-02-04 13:59:00,59.4,41.2,30.06,SSW,205,0.0,4.0,51,0.00,,,0.00,336.0,meteohub,2013-02-04 18:59:00,
2013-02-04 14:04:00,59.4,41.2,30.06,West,273,1.0,4.0,51,0.00,,,0.00,320.0,meteohub,2013-02-04 19:04:00,
2013-02-04 14:09:00,59.0,40.8,30.06,West,273,1.0,3.0,51,0.00,,,0.00,306.0,meteohub,2013-02-04 19:09:00,
2013-02-04 14:14:00,58.8,40.8,30.06,NNW,345,0.0,3.0,51,0.00,,,0.00,276.0,meteohub,2013-02-04 19:14:00,
2013-02-04 14:19:00,58.8,40.8,30.06,ESE,102,1.0,3.0,51,0.00,,,0.00,229.0,meteohub,2013-02-04 19:19:00,
2013-02-04 14:24:00,59.0,40.8,30.06,SSE,157,0.0,3.0,51,0.00,,,0.00,181.0,meteohub,2013-02-04 19:24:00,
2013-02-04 14:29:00,59.0,40.5,30.07,SSE,157,0.0,8.0,50,0.00,,,0.00,171.0,meteohub,2013-02-04 19:29:00,
2013-02-04 14:34:00,59.0,40.8,30.07,East,82,1.0,8.0,51,0.00,,,0.00,176.0,meteohub,2013-02-04 19:34:00,
2013-02-04 14:39:00,58.5,40.5,30.06,East,99,0.0,8.0,51,0.00,,,0.00,227.0,meteohub,2013-02-04 19:39:00,
2013-02-04 14:44:00,58.3,40.8,30.07,ENE,76,1.0,6.0,52,0.00,,,0.00,315.0,meteohub,2013-02-04 19:44:00,
2013-02-04 14:50:00,57.7,40.3,30.07,SE,126,1.0,6.0,52,0.00,,,0.00,339.0,meteohub,2013-02-04 19:50:00,
2013-02-04 14:55:00,57.0,39.6,30.07,East,99,3.0,7.0,52,0.00,,,0.00,313.0,meteohub,2013-02-04 19:55:00,
2013-02-04 15:00:00,56.7,39.7,30.07,NE,37,1.0,8.0,53,0.00,,,0.00,271.0,meteohub,2013-02-04 20:00:00,
2013-02-04 15:05:00,56.7,39.7,30.06,ENE,69,0.0,8.0,53,0.00,,,0.00,295.0,meteohub,2013-02-04 20:05:00,
2013-02-04 15:10:00,56.1,39.7,30.06,ENE,71,2.0,8.0,54,0.00,,,0.00,257.0,meteohub,2013-02-04 20:10:00,
2013-02-04 15:15:00,56.1,39.7,30.06,East,80,2.0,9.0,54,0.00,,,0.00,229.0,meteohub,2013-02-04 20:15:00,
2013-02-04 15:20:00,55.9,39.6,30.07,East,94,1.0,9.0,54,0.00,,,0.00,216.0,meteohub,2013-02-04 20:20:00,
2013-02-04 15:25:00,55.9,39.6,30.06,ESE,115,1.0,9.0,54,0.00,,,0.00,206.0,meteohub,2013-02-04 20:25:00,
2013-02-04 15:30:00,55.9,39.6,30.07,SE,137,0.0,6.0,54,0.00,,,0.00,171.0,meteohub,2013-02-04 20:30:00,
2013-02-04 15:35:00,55.8,39.4,30.07,SE,142,0.0,7.0,54,0.00,,,0.00,162.0,meteohub,2013-02-04 20:35:00,
2013-02-04 15:40:00,55.8,39.4,30.07,SSE,152,0.0,7.0,54,0.00,,,0.00,158.0,meteohub,2013-02-04 20:40:00,
2013-02-04 15:45:00,55.8,39.4,30.07,East,79,0.0,7.0,54,0.00,,,0.00,181.0,meteohub,2013-02-04 20:45:00,
2013-02-04 15:50:00,55.8,39.9,30.06,ESE,117,0.0,5.0,55,0.00,,,0.00,232.0,meteohub,2013-02-04 20:50:00,
2013-02-04 15:55:00,55.8,39.9,30.06,ENE,71,3.0,5.0,55,0.00,,,0.00,188.0,meteohub,2013-02-04 20:55:00,
2013-02-04 16:00:00,55.6,39.7,30.06,SE,132,0.0,5.0,55,0.00,,,0.00,165.0,meteohub,2013-02-04 21:00:00,
2013-02-04 16:05:00,55.6,40.1,30.06,ESE,117,0.0,5.0,56,0.00,,,0.00,156.0,meteohub,2013-02-04 21:05:00,
2013-02-04 16:10:00,55.4,39.9,30.07,ESE,123,1.0,5.0,56,0.00,,,0.00,149.0,meteohub,2013-02-04 21:10:00,
2013-02-04 16:15:00,55.4,39.9,30.08,ENE,74,0.0,5.0,56,0.00,,,0.00,146.0,meteohub,2013-02-04 21:15:00,
2013-02-04 16:20:00,55.2,40.3,30.08,East,90,1.0,4.0,57,0.00,,,0.00,134.0,meteohub,2013-02-04 21:20:00,
2013-02-04 16:25:00,55.2,40.3,30.07,SSE,147,0.0,4.0,57,0.00,,,0.00,111.0,meteohub,2013-02-04 21:25:00,
2013-02-04 16:30:00,55.2,40.3,30.07,SE,124,1.0,5.0,57,0.00,,,0.00,109.0,meteohub,2013-02-04 21:30:00,
2013-02-04 16:35:00,55.0,40.1,30.06,ESE,122,1.0,5.0,57,0.00,,,0.00,125.0,meteohub,2013-02-04 21:35:00,
2013-02-04 16:40:00,55.0,40.5,30.07,ESE,123,0.0,5.0,58,0.00,,,0.00,174.0,meteohub,2013-02-04 21:40:00,
2013-02-04 16:45:00,55.2,40.6,30.06,ESE,122,0.0,3.0,58,0.00,,,0.00,141.0,meteohub,2013-02-04 21:45:00,
2013-02-04 16:50:00,55.2,40.6,30.06,ENE,61,2.0,2.0,58,0.00,,,0.00,84.0,meteohub,2013-02-04 21:50:00,
2013-02-04 16:55:00,55.0,40.5,30.06,NNE,26,2.0,3.0,58,0.00,,,0.00,83.0,meteohub,2013-02-04 21:55:00,
2013-02-04 17:00:00,54.9,40.3,30.06,ENE,60,1.0,3.0,58,0.00,,,0.00,84.0,meteohub,2013-02-04 22:00:00,
2013-02-04 17:05:00,54.9,40.3,30.07,ENE,61,1.0,3.0,58,0.00,,,0.00,56.0,meteohub,2013-02-04 22:05:00,
2013-02-04 17:10:00,54.7,40.6,30.06,ENE,61,0.0,3.0,59,0.00,,,0.00,109.0,meteohub,2013-02-04 22:10:00,
2013-02-04 17:15:00,54.7,40.6,30.06,East,84,1.0,2.0,59,0.00,,,0.00,79.0,meteohub,2013-02-04 22:15:00,
2013-02-04 17:20:00,54.7,41.0,30.06,East,95,2.0,4.0,60,0.00,,,0.00,62.0,meteohub,2013-02-04 22:20:00,
2013-02-04 17:25:00,54.5,40.8,30.06,East,98,0.0,5.0,60,0.00,,,0.00,33.0,meteohub,2013-02-04 22:25:00,
2013-02-04 17:30:00,54.3,40.8,30.06,East,98,0.0,5.0,60,0.00,,,0.00,19.0,meteohub,2013-02-04 22:30:00,
2013-02-04 17:35:00,54.1,40.6,30.06,East,98,1.0,5.0,60,0.00,,,0.00,21.0,meteohub,2013-02-04 22:35:00,
2013-02-04 17:41:00,54.0,40.5,30.06,East,98,0.0,2.0,60,0.00,,,0.00,12.0,meteohub,2013-02-04 22:41:00,
2013-02-04 17:46:00,53.8,40.6,30.06,East,98,0.0,2.0,61,0.00,,,0.00,5.0,meteohub,2013-02-04 22:46:00,
2013-02-04 17:51:00,53.6,40.5,30.06,East,98,0.0,1.0,61,0.00,,,0.00,0.0,meteohub,2013-02-04 22:51:00,
2013-02-04 17:56:00,53.4,40.3,30.06,East,98,0.0,1.0,61,0.00,,,0.00,0.0,meteohub,2013-02-04 22:56:00,
2013-02-04 18:01:00,53.2,40.1,30.06,East,98,0.0,1.0,61,0.00,,,0.00,0.0,meteohub,2013-02-04 23:01:00,
2013-02-04 18:06:00,53.1,40.5,30.06,East,98,0.0,1.0,62,0.00,,,0.00,0.0,meteohub,2013-02-04 23:06:00,
2013-02-04 18:11:00,52.7,40.1,30.06,East,98,0.0,1.0,62,0.00,,,0.00,0.0,meteohub,2013-02-04 23:11:00,
2013-02-04 18:16:00,52.3,40.1,30.06,East,98,0.0,1.0,63,0.00,,,0.00,0.0,meteohub,2013-02-04 23:16:00,
2013-02-04 18:21:00,52.2,39.9,30.05,East,98,0.0,1.0,63,0.00,,,0.00,0.0,meteohub,2013-02-04 23:21:00,
2013-02-04 18:26:00,52.0,39.7,30.05,East,98,0.0,1.0,63,0.00,,,0.00,0.0,meteohub,2013-02-04 23:26:00,
2013-02-04 18:31:00,51.6,39.9,30.05,East,98,0.0,0.0,64,0.00,,,0.00,0.0,meteohub,2013-02-04 23:31:00,
2013-02-04 18:36:00,51.4,39.7,30.05,East,98,0.0,0.0,64,0.00,,,0.00,0.0,meteohub,2013-02-04 23:36:00,
2013-02-04 18:41:00,51.3,39.9,30.05,East,98,0.0,0.0,65,0.00,,,0.00,0.0,meteohub,2013-02-04 23:41:00,
2013-02-04 18:46:00,51.3,39.9,30.06,East,98,0.0,0.0,65,0.00,,,0.00,0.0,meteohub,2013-02-04 23:46:00,
2013-02-04 18:51:00,51.1,39.7,30.05,East,98,0.0,0.0,65,0.00,,,0.00,0.0,meteohub,2013-02-04 23:51:00,
2013-02-04 18:56:00,51.1,39.7,30.05,East,98,0.0,0.0,65,0.00,,,0.00,0.0,meteohub,2013-02-04 23:56:00,
2013-02-04 19:01:00,50.7,39.7,30.05,East,98,0.0,0.0,66,0.00,,,0.00,0.0,meteohub,2013-02-05 00:01:00,
2013-02-04 19:06:00,50.7,39.7,30.05,East,98,0.0,0.0,66,0.00,,,0.00,0.0,meteohub,2013-02-05 00:06:00,
2013-02-04 19:11:00,50.7,39.7,30.06,East,98,0.0,0.0,66,0.00,,,0.00,0.0,meteohub,2013-02-05 00:11:00,
2013-02-04 19:16:00,50.5,39.9,30.06,East,98,0.0,0.0,67,0.00,,,0.00,0.0,meteohub,2013-02-05 00:16:00,
2013-02-04 19:21:00,50.5,39.9,30.05,East,98,0.0,0.0,67,0.00,,,0.00,0.0,meteohub,2013-02-05 00:21:00,
2013-02-04 19:26:00,50.4,39.7,30.05,East,98,0.0,0.0,67,0.00,,,0.00,0.0,meteohub,2013-02-05 00:26:00,
2013-02-04 19:31:00,50.4,40.3,30.06,East,98,0.0,0.0,68,0.00,,,0.00,0.0,meteohub,2013-02-05 00:31:00,
2013-02-04 19:36:00,50.2,40.1,30.06,East,98,0.0,0.0,68,0.00,,,0.00,0.0,meteohub,2013-02-05 00:36:00,
2013-02-04 19:41:00,49.8,40.1,30.06,East,98,0.0,0.0,69,0.00,,,0.00,0.0,meteohub,2013-02-05 00:41:00,
2013-02-04 19:46:00,49.6,39.9,30.06,East,98,0.0,0.0,69,0.00,,,0.00,0.0,meteohub,2013-02-05 00:46:00,
2013-02-04 19:51:00,49.6,39.9,30.05,East,98,0.0,0.0,69,0.00,,,0.00,0.0,meteohub,2013-02-05 00:51:00,
2013-02-04 19:56:00,49.5,39.7,30.06,East,98,0.0,0.0,69,0.00,,,0.00,0.0,meteohub,2013-02-05 00:56:00,
2013-02-04 20:01:00,49.5,40.1,30.06,East,98,0.0,0.0,70,0.00,,,0.00,0.0,meteohub,2013-02-05 01:01:00,
2013-02-04 20:06:00,49.5,40.1,30.06,East,98,0.0,0.0,70,0.00,,,0.00,0.0,meteohub,2013-02-05 01:06:00,
2013-02-04 20:11:00,49.3,39.9,30.07,East,98,0.0,0.0,70,0.00,,,0.00,0.0,meteohub,2013-02-05 01:11:00,
2013-02-04 20:16:00,49.3,39.9,30.06,East,98,0.0,0.0,70,0.00,,,0.00,0.0,meteohub,2013-02-05 01:16:00,
2013-02-04 20:21:00,49.3,40.3,30.06,East,98,0.0,0.0,71,0.00,,,0.00,0.0,meteohub,2013-02-05 01:21:00,
2013-02-04 20:26:00,48.9,39.9,30.05,East,98,0.0,0.0,71,0.00,,,0.00,0.0,meteohub,2013-02-05 01:26:00,
2013-02-04 20:31:00,48.9,39.9,30.06,East,98,0.0,0.0,71,0.00,,,0.00,0.0,meteohub,2013-02-05 01:31:00,
2013-02-04 20:36:00,48.7,39.7,30.06,East,98,0.0,0.0,71,0.00,,,0.00,0.0,meteohub,2013-02-05 01:36:00,
2013-02-04 20:41:00,48.7,40.1,30.06,East,98,0.0,0.0,72,0.00,,,0.00,0.0,meteohub,2013-02-05 01:41:00,
2013-02-04 20:46:00,48.7,40.1,30.06,East,98,0.0,0.0,72,0.00,,,0.00,0.0,meteohub,2013-02-05 01:46:00,
2013-02-04 20:51:00,48.7,40.1,30.06,East,98,0.0,0.0,72,0.00,,,0.00,0.0,meteohub,2013-02-05 01:51:00,
2013-02-04 20:56:00,48.6,39.9,30.06,East,98,0.0,0.0,72,0.00,,,0.00,0.0,meteohub,2013-02-05 01:56:00,
2013-02-04 21:01:00,48.6,39.9,30.06,East,98,0.0,0.0,72,0.00,,,0.00,0.0,meteohub,2013-02-05 02:01:00,
2013-02-04 21:06:00,48.6,40.3,30.06,East,98,0.0,0.0,73,0.00,,,0.00,0.0,meteohub,2013-02-05 02:06:00,
2013-02-04 21:11:00,48.6,40.3,30.06,East,98,0.0,0.0,73,0.00,,,0.00,0.0,meteohub,2013-02-05 02:11:00,
2013-02-04 21:16:00,48.6,40.3,30.07,East,98,0.0,0.0,73,0.00,,,0.00,0.0,meteohub,2013-02-05 02:16:00,
2013-02-04 21:21:00,48.4,40.5,30.07,East,98,0.0,0.0,74,0.00,,,0.00,0.0,meteohub,2013-02-05 02:21:00,
2013-02-04 21:26:00,48.4,40.5,30.07,East,98,0.0,0.0,74,0.00,,,0.00,0.0,meteohub,2013-02-05 02:26:00,
2013-02-04 21:31:00,48.0,40.1,30.07,East,98,0.0,0.0,74,0.00,,,0.00,0.0,meteohub,2013-02-05 02:31:00,
2013-02-04 21:36:00,48.0,40.1,30.07,East,98,0.0,0.0,74,0.00,,,0.00,0.0,meteohub,2013-02-05 02:36:00,
2013-02-04 21:41:00,47.8,39.9,30.07,East,98,0.0,0.0,74,0.00,,,0.00,0.0,meteohub,2013-02-05 02:41:00,
2013-02-04 21:46:00,47.8,39.9,30.07,East,98,0.0,0.0,74,0.00,,,0.00,0.0,meteohub,2013-02-05 02:46:00,
2013-02-04 21:51:00,47.8,39.9,30.07,East,98,0.0,0.0,74,0.00,,,0.00,0.0,meteohub,2013-02-05 02:51:00,
2013-02-04 21:57:00,47.8,40.3,30.07,East,98,0.0,0.0,75,0.00,,,0.00,0.0,meteohub,2013-02-05 02:57:00,
2013-02-04 22:02:00,47.7,40.1,30.07,East,98,0.0,0.0,75,0.00,,,0.00,0.0,meteohub,2013-02-05 03:02:00,
2013-02-04 22:07:00,47.7,40.1,30.07,East,98,0.0,0.0,75,0.00,,,0.00,0.0,meteohub,2013-02-05 03:07:00,
2013-02-04 22:12:00,47.5,39.9,30.07,East,98,0.0,0.0,75,0.00,,,0.00,0.0,meteohub,2013-02-05 03:12:00,
2013-02-04 22:17:00,47.3,39.7,30.07,East,98,0.0,0.0,75,0.00,,,0.00,0.0,meteohub,2013-02-05 03:17:00,
2013-02-04 22:22:00,47.1,39.9,30.07,East,98,0.0,0.0,76,0.00,,,0.00,0.0,meteohub,2013-02-05 03:22:00,
2013-02-04 22:27:00,47.1,39.9,30.07,East,98,0.0,0.0,76,0.00,,,0.00,0.0,meteohub,2013-02-05 03:27:00,
2013-02-04 22:32:00,46.9,39.7,30.06,East,98,0.0,0.0,76,0.00,,,0.00,0.0,meteohub,2013-02-05 03:32:00,
2013-02-04 22:37:00,46.9,39.7,30.07,East,98,0.0,0.0,76,0.00,,,0.00,0.0,meteohub,2013-02-05 03:37:00,
2013-02-04 22:42:00,46.9,39.7,30.07,East,98,0.0,0.0,76,0.00,,,0.00,0.0,meteohub,2013-02-05 03:42:00,
2013-02-04 22:47:00,46.8,39.9,30.06,East,98,0.0,0.0,77,0.00,,,0.00,0.0,meteohub,2013-02-05 03:47:00,
2013-02-04 22:52:00,46.6,39.7,30.06,East,98,0.0,0.0,77,0.00,,,0.00,0.0,meteohub,2013-02-05 03:52:00,
2013-02-04 22:57:00,46.4,39.6,30.06,East,98,0.0,0.0,77,0.00,,,0.00,0.0,meteohub,2013-02-05 03:57:00,
2013-02-04 23:02:00,46.2,39.7,30.06,East,98,0.0,0.0,78,0.00,,,0.00,0.0,meteohub,2013-02-05 04:02:00,
2013-02-04 23:07:00,46.0,39.6,30.06,East,98,0.0,1.0,78,0.00,,,0.00,0.0,meteohub,2013-02-05 04:07:00,
2013-02-04 23:12:00,45.9,39.4,30.06,East,98,0.0,1.0,78,0.00,,,0.00,0.0,meteohub,2013-02-05 04:12:00,
2013-02-04 23:17:00,45.7,39.2,30.05,East,98,0.0,1.0,78,0.00,,,0.00,0.0,meteohub,2013-02-05 04:17:00,
2013-02-04 23:22:00,45.3,38.8,30.05,East,98,0.0,1.0,78,0.00,,,0.00,0.0,meteohub,2013-02-05 04:22:00,
2013-02-04 23:27:00,45.1,39.0,30.06,East,98,0.0,0.0,79,0.00,,,0.00,0.0,meteohub,2013-02-05 04:27:00,
2013-02-04 23:32:00,45.0,38.8,30.06,East,98,0.0,0.0,79,0.00,,,0.00,0.0,meteohub,2013-02-05 04:32:00,
2013-02-04 23:37:00,44.8,38.7,30.06,East,98,0.0,1.0,79,0.00,,,0.00,0.0,meteohub,2013-02-05 04:37:00,
2013-02-04 23:42:00,44.8,38.7,30.06,East,98,0.0,1.0,79,0.00,,,0.00,0.0,meteohub,2013-02-05 04:42:00,
2013-02-04 23:47:00,44.4,38.7,30.06,East,98,0.0,1.0,80,0.00,,,0.00,0.0,meteohub,2013-02-05 04:47:00,
2013-02-04 23:52:00,44.4,38.7,30.05,East,98,0.0,0.0,80,0.00,,,0.00,0.0,meteohub,2013-02-05 04:52:00,
2013-02-04 23:57:00,44.2,38.5,30.05,East,98,0.0,0.0,80,0.00,,,0.00,0.0,meteohub,2013-02-05 04:57:00,